Flight Track Log - Related Links

Times and Time Zones

All times are in EDT time to prevent confusion due to time zone crossing. See the ZS-SNC flight status page for this flight to view local times or setup timezone preferences in your user account.

Time Position Orientation Groundspeed Altitude Reporting Facility
EDT Latitude Longitude Course Direction KTS MPH feet Rate Location/Type
Wed 08:37:07 AM -33.9900 18.6090 165° South 137 158 600  Level FlightAware ADS-B
Wed 08:37:22 AM -33.9990 18.6120 165° South 136 157 1,100 1,950 Climbing FlightAware ADS-B
Wed 08:37:47 AM -34.0160 18.6170 166° South 152 175 1,900 1,527 Climbing FlightAware ADS-B
Wed 08:38:17 AM -34.0400 18.6250 165° South 186 214 2,500 1,200 Climbing FlightAware ADS-B
Wed 08:38:47 AM -34.0670 18.6370 160° South 227 261 3,100 1,500 Climbing FlightAware ADS-B
Wed 08:38:57 AM -34.0750 18.6450 140° Southeast 232 267 3,500 3,360 Climbing FlightAware ADS-B
Wed 08:39:12 AM -34.0840 18.6640 120° Southeast 238 274 4,500 3,333 Climbing FlightAware ADS-B
Wed 08:39:42 AM -34.0890 18.7030 99° East 247 284 6,000 3,055 Climbing FlightAware ADS-B
Wed 08:40:07 AM -34.0930 18.7370 98° East 257 296 7,300 2,727 Climbing FlightAware ADS-B
Wed 08:40:37 AM -34.0980 18.7810 98° East 273 314 8,500 2,743 Climbing FlightAware ADS-B
Wed 08:41:17 AM -34.1050 18.8440 98° East 286 329 10,500 2,143 Climbing FlightAware ADS-B
Wed 08:41:47 AM -34.1060 18.8930 91° East 330 380 11,000 1,067 Climbing FlightAware ADS-B
Wed 08:42:02 AM -34.0940 18.9200 62° Northeast 356 410 11,300 2,073 Climbing FlightAware ADS-B
Wed 08:42:42 AM -34.0470 18.9790 46° Northeast 372 428 12,900 2,400 Climbing FlightAware ADS-B
Wed 08:43:27 AM -33.9920 19.0550 49° Northeast 394 453 14,700 2,400 Climbing FlightAware ADS-B
Wed 08:44:07 AM -33.9430 19.1220 49° Northeast 402 463 16,300 2,325 Climbing FlightAware ADS-B
Wed 08:44:47 AM -33.8930 19.1900 48° Northeast 418 481 17,800 2,188 Climbing FlightAware ADS-B
Wed 08:45:32 AM -33.8340 19.2710 49° Northeast 425 489 19,400 2,118 Climbing FlightAware ADS-B
Wed 08:46:12 AM -33.7800 19.3450 49° Northeast 440 506 20,800 2,025 Climbing FlightAware ADS-B
Wed 08:46:52 AM -33.7270 19.4160 48° Northeast 444 511 22,100 1,835 Climbing FlightAware ADS-B
Wed 08:47:37 AM -33.6620 19.5040 48° Northeast 460 529 23,400 1,835 Climbing FlightAware ADS-B
Wed 08:48:17 AM -33.6050 19.5800 48° Northeast 462 532 24,700 1,875 Climbing FlightAware ADS-B
Wed 08:48:57 AM -33.5460 19.6590 48° Northeast 469 540 25,900 1,694 Climbing FlightAware ADS-B
Wed 08:49:42 AM -33.4790 19.7490 48° Northeast 487 560 27,100 1,624 Climbing FlightAware ADS-B
Wed 08:50:22 AM -33.4200 19.8270 48° Northeast 492 566 28,200 1,765 Climbing FlightAware ADS-B
Wed 08:51:07 AM -33.3480 19.9230 48° Northeast 509 586 29,600 2,400 Climbing FlightAware ADS-B
Wed 08:51:47 AM -33.2850 20.0070 48° Northeast 493 567 31,600 2,700 Climbing FlightAware ADS-B
Wed 08:52:27 AM -33.2250 20.0860 48° Northeast 488 562 33,200 2,160 Climbing FlightAware ADS-B
Wed 08:53:52 AM -33.0930 20.2600 48° Northeast 485 558 36,100 1,742 Climbing FlightAware ADS-B
Wed 08:55:02 AM -32.9910 20.3940 48° Northeast 487 560 37,700 914 Climbing FlightAware ADS-B
Wed 08:55:37 AM -32.9440 20.4550 47° Northeast 487 560 37,700 1,040 Level FlightAware ADS-B
Wed 08:56:17 AM -32.8740 20.5470 48° Northeast 490 564 39,000 624 Climbing FlightAware ADS-B
Wed 08:57:42 AM -32.7460 20.7130 48° Northeast 501 577 39,000  Level FlightAware ADS-B
Wed 08:58:52 AM -32.6390 20.8510 47° Northeast 504 580 39,000  Level FlightAware ADS-B
Wed 08:59:32 AM -32.5850 20.9200 47° Northeast 504 580 39,000  Level FlightAware ADS-B
Wed 09:00:22 AM -32.5180 21.0050 47° Northeast 504 580 39,000  Level FlightAware ADS-B
Wed 09:01:02 AM -32.4640 21.0740 47° Northeast 504 580 39,000  Level FlightAware ADS-B
Wed 09:01:42 AM -32.4100 21.1430 47° Northeast 504 580 39,000  Level FlightAware ADS-B
Wed 09:02:22 AM -32.3560 21.2120 47° Northeast 504 580 39,000  Level FlightAware ADS-B
Wed 09:03:02 AM -32.3020 21.2800 47° Northeast 504 580 39,000  Level FlightAware ADS-B
Wed 09:03:42 AM -32.2470 21.3490 47° Northeast 504 580 39,000  Level FlightAware ADS-B
Wed 09:04:32 AM -32.1800 21.4340 47° Northeast 504 580 39,000  Level FlightAware ADS-B
Wed 09:05:12 AM -32.1260 21.5030 47° Northeast 504 580 39,000  Level FlightAware ADS-B
Wed 09:05:52 AM -32.0720 21.5710 47° Northeast 504 580 39,000  Level FlightAware ADS-B
Wed 09:06:37 AM -32.0180 21.6400 47° Northeast 504 580 39,000  Level FlightAware ADS-B
Wed 09:07:22 AM -31.9500 21.7250 47° Northeast 504 580 39,000  Level FlightAware ADS-B
Wed 09:08:02 AM -31.8960 21.7930 47° Northeast 504 580 39,000  Level FlightAware ADS-B
Wed 09:10:00 AM -31.7332 21.9913 46° Northeast  Level Estimated
Wed 09:11:00 AM -31.6503 22.0918 46° Northeast  Level Estimated
Wed 09:12:00 AM -31.5674 22.1922 46° Northeast  Level Estimated
Wed 09:13:00 AM -31.4843 22.2924 46° Northeast  Level Estimated
Wed 09:14:00 AM -31.4012 22.3924 46° Northeast  Level Estimated
Wed 09:15:00 AM -31.3180 22.4923 46° Northeast  Level Estimated
Wed 09:16:00 AM -31.2347 22.5919 46° Northeast  Level Estimated
Wed 09:16:42 AM -30.9120 23.0220 46° Northeast 518 596 39,000  Level FlightAware ADS-B
Wed 09:17:22 AM -30.8510 23.0960 46° Northeast 517 595 39,000  Level FlightAware ADS-B
Wed 09:17:57 AM -30.7930 23.1680 47° Northeast 519 597 39,000  Level FlightAware ADS-B
Wed 09:18:42 AM -30.7230 23.2510 46° Northeast 519 597 39,000  Level FlightAware ADS-B
Wed 09:19:27 AM -30.6430 23.3490 47° Northeast 519 597 39,000  Level FlightAware ADS-B
Wed 09:20:02 AM -30.5810 23.4250 47° Northeast 514 592 39,000  Level FlightAware ADS-B
Wed 09:20:52 AM -30.4990 23.5240 46° Northeast 515 593 39,000  Level FlightAware ADS-B
Wed 09:21:32 AM -30.4310 23.6060 46° Northeast 513 590 39,000  Level FlightAware ADS-B
Wed 09:22:17 AM -30.3560 23.6960 46° Northeast 517 595 39,000  Level FlightAware ADS-B
Wed 09:22:57 AM -30.2890 23.7760 46° Northeast 516 594 39,000  Level FlightAware ADS-B
Wed 09:23:37 AM -30.2270 23.8510 46° Northeast 516 594 39,000  Level FlightAware ADS-B
Wed 09:24:22 AM -30.1470 23.9460 46° Northeast 515 593 39,000  Level FlightAware ADS-B
Wed 09:25:02 AM -30.0820 24.0240 46° Northeast 512 589 39,000  Level FlightAware ADS-B
Wed 09:25:42 AM -30.0220 24.0950 46° Northeast 513 590 39,000  Level FlightAware ADS-B
Wed 09:26:27 AM -29.9410 24.1910 46° Northeast 513 590 39,000  Level FlightAware ADS-B
Wed 09:27:22 AM -29.8610 24.2870 46° Northeast 511 588 39,000  Level FlightAware ADS-B
Wed 09:28:02 AM -29.8050 24.3540 46° Northeast 511 588 39,000  Level FlightAware ADS-B
Wed 09:28:37 AM -29.7230 24.4490 45° Northeast 510 587 39,000  Level FlightAware ADS-B
Wed 09:29:27 AM -29.6400 24.5470 46° Northeast 512 589 39,000  Level FlightAware ADS-B
Wed 09:30:12 AM -29.5700 24.6290 46° Northeast 513 590 39,000  Level FlightAware ADS-B
Wed 09:30:52 AM -29.5140 24.6960 46° Northeast 513 590 39,000  Level FlightAware ADS-B
Wed 09:31:32 AM -29.4580 24.7630 46° Northeast 513 590 39,000  Level FlightAware ADS-B
Wed 09:32:12 AM -29.4020 24.8290 46° Northeast 513 590 39,000  Level FlightAware ADS-B
Wed 09:32:52 AM -29.3460 24.8960 46° Northeast 513 590 39,000  Level FlightAware ADS-B
Wed 09:33:42 AM -29.2760 24.9790 46° Northeast 513 590 39,000  Level FlightAware ADS-B
Wed 09:34:22 AM -29.2200 25.0460 46° Northeast 513 590 39,000  Level FlightAware ADS-B
Wed 09:35:07 AM -29.1640 25.1120 46° Northeast 513 590 39,000  Level FlightAware ADS-B
Wed 09:35:42 AM -29.1080 25.1790 46° Northeast 513 590 39,000  Level FlightAware ADS-B
Wed 09:36:22 AM -29.0520 25.2450 46° Northeast 513 590 39,000  Level FlightAware ADS-B
Wed 09:37:12 AM -28.9820 25.3280 46° Northeast 513 590 39,000  Level FlightAware ADS-B
Wed 09:37:52 AM -28.9260 25.3940 46° Northeast 513 590 39,000  Level FlightAware ADS-B
Wed 09:38:32 AM -28.8700 25.4610 46° Northeast 513 590 39,000  Level FlightAware ADS-B
Wed 09:39:12 AM -28.8140 25.5270 46° Northeast 513 590 39,000 -613 Level FlightAware ADS-B
Wed 09:41:00 AM -28.6563 25.6926 43° Northeast  Level Estimated
Wed 09:42:00 AM -28.5686 25.7845 43° Northeast  Level Estimated
Wed 09:43:00 AM -28.4808 25.8761 43° Northeast  Level Estimated
Wed 09:44:00 AM -28.3929 25.9676 43° Northeast  Level Estimated
Wed 09:45:00 AM -28.3050 26.0590 42° Northeast  Level Estimated
Wed 09:46:00 AM -28.2171 26.1502 42° Northeast  Level Estimated
Wed 09:47:00 AM -28.1290 26.2413 42° Northeast  Level Estimated
Wed 09:48:00 AM -28.0410 26.3322 42° Northeast  Level Estimated
Wed 09:49:00 AM -27.9528 26.4229 42° Northeast  Level Estimated
Wed 09:50:00 AM -27.8646 26.5135 42° Northeast  Level Estimated
Wed 09:50:27 AM -27.5840 26.8930 42° Northeast 497 572 31,700  Level FlightAware ADS-B
Wed 09:51:02 AM -27.5840 26.8930 42° Northeast 485 558 30,600 -1,920 Descending FlightAware ADS-B
Wed 09:52:07 AM -27.4030 27.0930 44° Northeast 466 536 28,500 -1,829 Descending FlightAware ADS-B
Wed 09:52:47 AM -27.3420 27.1600 44° Northeast 459 528 27,400 -1,835 Descending FlightAware ADS-B
Wed 09:53:32 AM -27.2670 27.2430 45° Northeast 444 511 25,900 -1,800 Descending FlightAware ADS-B
Wed 09:54:27 AM -27.1900 27.3240 43° Northeast 426 490 24,400 -1,705 Descending FlightAware ADS-B
Wed 09:55:07 AM -27.1300 27.3800 40° Northeast 417 480 23,200 -1,765 Descending FlightAware ADS-B
Wed 09:55:52 AM -27.0670 27.4410 41° Northeast 407 468 21,900 -1,765 Descending FlightAware ADS-B
Wed 09:56:32 AM -27.0070 27.4970 40° Northeast 401 461 20,700 -1,740 Descending FlightAware ADS-B
Wed 09:57:32 AM -26.9220 27.5780 40° Northeast 391 450 19,000 -1,333 Descending FlightAware ADS-B
Wed 09:58:02 AM -26.8800 27.6180 40° Northeast 371 427 18,700 -600 Descending FlightAware ADS-B
Wed 09:58:52 AM -26.8170 27.6760 39° Northeast 344 396 18,200 -918 Descending FlightAware ADS-B
Wed 09:59:27 AM -26.7730 27.7140 38° Northeast 341 392 17,400 -1,412 Descending FlightAware ADS-B
Wed 10:00:17 AM -26.7090 27.7670 36° Northeast 337 388 16,200 -1,400 Descending FlightAware ADS-B
Wed 10:00:57 AM -26.6590 27.8090 37° Northeast 332 382 15,300 -1,341 Descending FlightAware ADS-B
Wed 10:01:42 AM -26.6080 27.8530 38° Northeast 324 373 14,300 -1,341 Descending FlightAware ADS-B
Wed 10:02:22 AM -26.5580 27.8970 38° Northeast 316 364 13,400 -1,360 Descending FlightAware ADS-B
Wed 10:02:57 AM -26.5240 27.9380 47° Northeast 319 367 12,600 -1,553 Descending FlightAware ADS-B
Wed 10:03:47 AM -26.4760 27.9940 46° Northeast 303 349 11,200 -2,084 Descending FlightAware ADS-B
Wed 10:04:32 AM -26.4330 28.0450 47° Northeast 292 336 9,300 -2,314 Descending FlightAware ADS-B
Wed 10:04:57 AM -26.4090 28.0730 46° Northeast 295 339 8,500 -1,333 Descending FlightAware ADS-B
Wed 10:05:17 AM -26.3890 28.0960 46° Northeast 285 328 8,300 -600 Descending FlightAware ADS-B
Wed 10:05:47 AM -26.3620 28.1280 47° Northeast 264 304 8,000 -545 Descending FlightAware ADS-B
Wed 10:06:12 AM -26.3440 28.1490 46° Northeast 251 289 7,800 -240 Descending FlightAware ADS-B
Wed 10:06:37 AM -26.3260 28.1700 46° Northeast 228 262 7,800  Level FlightAware ADS-B
Wed 10:07:02 AM -26.3070 28.1920 46° Northeast 215 247 7,800 -218 Level FlightAware ADS-B
Wed 10:07:32 AM -26.2860 28.2110 39° Northeast 192 221 7,600 -700 Descending FlightAware ADS-B
Wed 10:08:02 AM -26.2620 28.2180 15° North 197 227 7,100 -900 Descending FlightAware ADS-B
Wed 10:08:12 AM -26.2530 28.2210 17° North 192 221 7,000 -900 Descending FlightAware ADS-B
Wed 10:08:42 AM -26.2270 28.2290 15° North 175 201 6,500 -982 Descending FlightAware ADS-B
Wed 10:09:07 AM -26.2080 28.2350 16° North 160 184 6,100 -764 Descending FlightAware ADS-B
Wed 10:09:37 AM -26.1860 28.2410 14° North 164 189 5,800 -764 Descending FlightAware ADS-B
Wed 10:10:02 AM -26.1690 28.2470 18° North 159 183 5,400 -960 Descending FlightAware ADS-B

Login

Don't have an account? Register now (free) for customized features, flight alerts, and more!